Strona główna
METAR-TAF:

METAR-TAF

Lotnisko :

Florennes, Belgia

Szerokość geograficzna: 50-14N, Długość geograficzna: 004-39E, wysokość: 279 m

Aktualna obserwacja pogody

Raport powstał 27 minut temu, godzina 01:55 UTC
Wiatr 4 kt od wschód
Temperatura 23°C
Wilgotność 50%
Ciśnienie 1016 hPa
Widzialność 10 km lub więcej

METAR: EBFS 240155Z AUTO 09004KT 9999 NCD 23/12 Q1016 BLU

czas: 04:22 (02:22 UTC)

Prognoza

Raport powstał 10 godziny i 41 minut temu, godzina 15:41 UTC
Prognoza ważna od 23 godzina 19 UTC do 24 godzina 07 UTC
Wiatr 4 kt od południowy wschód
Widzialność 10 km lub więcej
Mało chmury na wysokości 30000 ft
Stopniowe zmiany
od 23 godzina 23 UTC do 24 godzina 01 UTC
Wiatr 2 kt z kierunków zmiennych
bezchmurnie

TAF: EBFS 231541Z 2319/2407 14004KT 9999 FEW300 BECMG 2323/2401 VRB02KT SKC

Obserwacja i prognoza pogody dla ponad 4000 lotnisk (raport METAR i TAF).

Dostępne stacje oznaczono żółtymi i czerwonymi punktami na mapie.

Najedź kursorem aby zobaczyć nazwę stacji.

Kliknij aby zobaczyć obserwacje i prognozy pogody.

Aby zmienić mapę: kliknij na zielony przycisk z czarnym krzyżykiem, aby powiększyć; na zielony przycisk z myślnikiem, aby pomniejszyć; na zielone strzałki, aby przejść do map sąsiednich.


METAR-TAF: